sensor_id;sensor_type;location;lat;lon;timestamp;P1;durP1;ratioP1;P2;durP2;ratioP2
34775;SDS011;20989;52.566;13.346;2023-04-25T00:01:18;0.55;;;0.55;;
34775;SDS011;20989;52.566;13.346;2023-04-25T00:04:19;1.00;;;0.80;;
34775;SDS011;20989;52.566;13.346;2023-04-25T00:07:21;0.55;;;0.55;;
34775;SDS011;20989;52.566;13.346;2023-04-25T00:10:22;0.73;;;0.73;;
34775;SDS011;20989;52.566;13.346;2023-04-25T00:13:23;0.68;;;0.68;;
34775;SDS011;20989;52.566;13.346;2023-04-25T00:16:25;0.70;;;0.70;;
34775;SDS011;20989;52.566;13.346;2023-04-25T00:19:28;0.80;;;0.80;;
34775;SDS011;20989;52.566;13.346;2023-04-25T00:22:30;0.57;;;0.57;;
34775;SDS011;20989;52.566;13.346;2023-04-25T00:25:31;0.95;;;0.52;;
34775;SDS011;20989;52.566;13.346;2023-04-25T00:28:32;1.25;;;0.80;;
34775;SDS011;20989;52.566;13.346;2023-04-25T00:31:33;0.43;;;0.43;;
34775;SDS011;20989;52.566;13.346;2023-04-25T00:34:33;0.60;;;0.60;;
34775;SDS011;20989;52.566;13.346;2023-04-25T00:37:34;1.20;;;0.70;;
34775;SDS011;20989;52.566;13.346;2023-04-25T00:40:35;0.60;;;0.60;;
34775;SDS011;20989;52.566;13.346;2023-04-25T00:43:36;0.90;;;0.65;;
34775;SDS011;20989;52.566;13.346;2023-04-25T00:46:38;0.68;;;0.55;;
34775;SDS011;20989;52.566;13.346;2023-04-25T00:49:41;0.63;;;0.60;;
34775;SDS011;20989;52.566;13.346;2023-04-25T00:52:43;0.60;;;0.60;;
34775;SDS011;20989;52.566;13.346;2023-04-25T00:55:45;0.63;;;0.52;;
34775;SDS011;20989;52.566;13.346;2023-04-25T00:58:46;0.68;;;0.68;;
34775;SDS011;20989;52.566;13.346;2023-04-25T01:01:47;0.50;;;0.50;;
34775;SDS011;20989;52.566;13.346;2023-04-25T01:04:48;0.57;;;0.57;;
34775;SDS011;20989;52.566;13.346;2023-04-25T01:07:49;1.05;;;0.80;;
34775;SDS011;20989;52.566;13.346;2023-04-25T01:10:50;0.95;;;0.88;;
34775;SDS011;20989;52.566;13.346;2023-04-25T01:13:51;0.60;;;0.60;;
34775;SDS011;20989;52.566;13.346;2023-04-25T01:16:52;0.60;;;0.60;;
34775;SDS011;20989;52.566;13.346;2023-04-25T01:19:53;0.57;;;0.50;;
34775;SDS011;20989;52.566;13.346;2023-04-25T01:22:54;0.63;;;0.63;;
34775;SDS011;20989;52.566;13.346;2023-04-25T01:25:55;0.50;;;0.50;;
34775;SDS011;20989;52.566;13.346;2023-04-25T01:28:56;0.80;;;0.65;;
34775;SDS011;20989;52.566;13.346;2023-04-25T01:31:58;0.85;;;0.85;;
34775;SDS011;20989;52.566;13.346;2023-04-25T01:34:59;0.70;;;0.70;;
34775;SDS011;20989;52.566;13.346;2023-04-25T01:38:00;0.60;;;0.60;;
34775;SDS011;20989;52.566;13.346;2023-04-25T01:41:01;1.02;;;0.60;;
34775;SDS011;20989;52.566;13.346;2023-04-25T01:44:02;0.77;;;0.60;;
34775;SDS011;20989;52.566;13.346;2023-04-25T01:47:03;0.50;;;0.50;;
34775;SDS011;20989;52.566;13.346;2023-04-25T01:50:04;0.55;;;0.55;;
34775;SDS011;20989;52.566;13.346;2023-04-25T01:53:08;0.50;;;0.50;;
34775;SDS011;20989;52.566;13.346;2023-04-25T01:56:11;1.02;;;0.90;;
34775;SDS011;20989;52.566;13.346;2023-04-25T01:59:11;0.65;;;0.65;;
34775;SDS011;20989;52.566;13.346;2023-04-25T02:02:12;0.60;;;0.60;;
34775;SDS011;20989;52.566;13.346;2023-04-25T02:05:13;0.70;;;0.70;;
34775;SDS011;20989;52.566;13.346;2023-04-25T02:08:16;0.73;;;0.52;;
34775;SDS011;20989;52.566;13.346;2023-04-25T02:11:18;0.95;;;0.73;;
34775;SDS011;20989;52.566;13.346;2023-04-25T02:14:19;0.65;;;0.60;;
34775;SDS011;20989;52.566;13.346;2023-04-25T02:17:20;0.70;;;0.63;;
34775;SDS011;20989;52.566;13.346;2023-04-25T02:20:22;0.88;;;0.88;;
34775;SDS011;20989;52.566;13.346;2023-04-25T02:23:24;0.60;;;0.60;;
34775;SDS011;20989;52.566;13.346;2023-04-25T02:26:25;0.60;;;0.60;;
34775;SDS011;20989;52.566;13.346;2023-04-25T02:29:26;0.93;;;0.60;;
34775;SDS011;20989;52.566;13.346;2023-04-25T02:32:26;0.93;;;0.80;;
34775;SDS011;20989;52.566;13.346;2023-04-25T02:35:27;0.82;;;0.80;;
34775;SDS011;20989;52.566;13.346;2023-04-25T02:38:28;0.60;;;0.60;;
34775;SDS011;20989;52.566;13.346;2023-04-25T02:41:29;1.15;;;0.73;;
34775;SDS011;20989;52.566;13.346;2023-04-25T02:44:30;0.60;;;0.60;;
34775;SDS011;20989;52.566;13.346;2023-04-25T02:47:30;0.68;;;0.68;;
34775;SDS011;20989;52.566;13.346;2023-04-25T02:50:31;0.60;;;0.52;;
34775;SDS011;20989;52.566;13.346;2023-04-25T02:53:32;1.95;;;0.73;;
34775;SDS011;20989;52.566;13.346;2023-04-25T02:56:33;0.80;;;0.80;;
34775;SDS011;20989;52.566;13.346;2023-04-25T02:59:33;1.00;;;0.90;;
34775;SDS011;20989;52.566;13.346;2023-04-25T03:02:34;0.80;;;0.80;;
34775;SDS011;20989;52.566;13.346;2023-04-25T03:05:35;0.85;;;0.60;;
34775;SDS011;20989;52.566;13.346;2023-04-25T03:08:36;1.02;;;0.70;;
34775;SDS011;20989;52.566;13.346;2023-04-25T03:11:38;0.95;;;0.70;;
34775;SDS011;20989;52.566;13.346;2023-04-25T03:14:39;0.52;;;0.52;;
34775;SDS011;20989;52.566;13.346;2023-04-25T03:17:39;1.20;;;0.55;;
34775;SDS011;20989;52.566;13.346;2023-04-25T03:20:40;0.95;;;0.80;;
34775;SDS011;20989;52.566;13.346;2023-04-25T03:23:41;1.00;;;0.90;;
34775;SDS011;20989;52.566;13.346;2023-04-25T03:26:42;0.93;;;0.90;;
34775;SDS011;20989;52.566;13.346;2023-04-25T03:29:43;0.60;;;0.60;;
34775;SDS011;20989;52.566;13.346;2023-04-25T03:32:44;0.70;;;0.70;;
34775;SDS011;20989;52.566;13.346;2023-04-25T03:35:45;0.90;;;0.82;;
34775;SDS011;20989;52.566;13.346;2023-04-25T03:38:45;0.80;;;0.80;;
34775;SDS011;20989;52.566;13.346;2023-04-25T03:41:48;0.70;;;0.70;;
34775;SDS011;20989;52.566;13.346;2023-04-25T03:44:49;0.80;;;0.80;;
34775;SDS011;20989;52.566;13.346;2023-04-25T03:47:51;0.68;;;0.68;;
34775;SDS011;20989;52.566;13.346;2023-04-25T03:50:52;1.02;;;1.02;;
34775;SDS011;20989;52.566;13.346;2023-04-25T03:53:54;0.80;;;0.73;;
34775;SDS011;20989;52.566;13.346;2023-04-25T03:56:55;0.82;;;0.70;;
34775;SDS011;20989;52.566;13.346;2023-04-25T04:03:40;0.95;;;0.60;;
34775;SDS011;20989;52.566;13.346;2023-04-25T04:06:41;1.13;;;1.08;;
34775;SDS011;20989;52.566;13.346;2023-04-25T04:09:42;0.80;;;0.80;;
34775;SDS011;20989;52.566;13.346;2023-04-25T04:12:43;0.90;;;0.73;;
34775;SDS011;20989;52.566;13.346;2023-04-25T04:15:44;1.30;;;0.80;;
34775;SDS011;20989;52.566;13.346;2023-04-25T04:18:45;1.10;;;0.88;;
34775;SDS011;20989;52.566;13.346;2023-04-25T04:21:46;0.75;;;0.75;;
34775;SDS011;20989;52.566;13.346;2023-04-25T04:24:46;1.02;;;0.93;;
34775;SDS011;20989;52.566;13.346;2023-04-25T04:27:47;0.90;;;0.90;;
34775;SDS011;20989;52.566;13.346;2023-04-25T04:30:48;0.57;;;0.57;;
34775;SDS011;20989;52.566;13.346;2023-04-25T04:33:51;0.85;;;0.75;;
34775;SDS011;20989;52.566;13.346;2023-04-25T04:36:51;1.17;;;0.80;;
34775;SDS011;20989;52.566;13.346;2023-04-25T04:39:52;0.60;;;0.60;;
34775;SDS011;20989;52.566;13.346;2023-04-25T04:42:53;1.70;;;0.65;;
34775;SDS011;20989;52.566;13.346;2023-04-25T04:45:56;0.75;;;0.75;;
34775;SDS011;20989;52.566;13.346;2023-04-25T04:48:57;0.68;;;0.68;;
34775;SDS011;20989;52.566;13.346;2023-04-25T04:51:59;0.90;;;0.90;;
34775;SDS011;20989;52.566;13.346;2023-04-25T04:55:00;2.90;;;0.75;;
34775;SDS011;20989;52.566;13.346;2023-04-25T04:58:02;1.05;;;1.02;;
34775;SDS011;20989;52.566;13.346;2023-04-25T05:01:03;0.95;;;0.80;;
34775;SDS011;20989;52.566;13.346;2023-04-25T05:04:03;0.68;;;0.68;;
34775;SDS011;20989;52.566;13.346;2023-04-25T05:07:05;0.88;;;0.88;;
34775;SDS011;20989;52.566;13.346;2023-04-25T05:10:06;1.13;;;0.82;;
34775;SDS011;20989;52.566;13.346;2023-04-25T05:13:07;2.78;;;0.80;;
34775;SDS011;20989;52.566;13.346;2023-04-25T05:16:08;1.58;;;1.00;;
34775;SDS011;20989;52.566;13.346;2023-04-25T05:19:09;1.27;;;0.90;;
34775;SDS011;20989;52.566;13.346;2023-04-25T05:22:10;1.20;;;0.90;;
34775;SDS011;20989;52.566;13.346;2023-04-25T05:25:10;1.23;;;1.13;;
34775;SDS011;20989;52.566;13.346;2023-04-25T05:28:13;0.80;;;0.80;;
34775;SDS011;20989;52.566;13.346;2023-04-25T05:31:13;1.33;;;0.98;;
34775;SDS011;20989;52.566;13.346;2023-04-25T05:34:14;3.13;;;1.00;;
34775;SDS011;20989;52.566;13.346;2023-04-25T05:37:17;1.45;;;0.90;;
34775;SDS011;20989;52.566;13.346;2023-04-25T05:40:17;2.83;;;1.08;;
34775;SDS011;20989;52.566;13.346;2023-04-25T05:43:18;1.17;;;1.02;;
34775;SDS011;20989;52.566;13.346;2023-04-25T05:46:19;1.02;;;0.90;;
34775;SDS011;20989;52.566;13.346;2023-04-25T05:49:20;4.93;;;1.00;;
34775;SDS011;20989;52.566;13.346;2023-04-25T05:52:21;0.98;;;0.88;;
34775;SDS011;20989;52.566;13.346;2023-04-25T05:55:21;0.90;;;0.90;;
34775;SDS011;20989;52.566;13.346;2023-04-25T05:58:22;1.35;;;1.08;;
34775;SDS011;20989;52.566;13.346;2023-04-25T06:01:23;3.70;;;1.48;;
34775;SDS011;20989;52.566;13.346;2023-04-25T06:04:24;3.72;;;1.73;;
34775;SDS011;20989;52.566;13.346;2023-04-25T06:07:25;1.65;;;1.23;;
34775;SDS011;20989;52.566;13.346;2023-04-25T06:10:26;1.48;;;1.00;;
34775;SDS011;20989;52.566;13.346;2023-04-25T06:13:27;4.75;;;1.20;;
34775;SDS011;20989;52.566;13.346;2023-04-25T06:16:27;2.47;;;1.27;;
34775;SDS011;20989;52.566;13.346;2023-04-25T06:19:28;3.08;;;1.10;;
34775;SDS011;20989;52.566;13.346;2023-04-25T06:22:29;3.58;;;1.13;;
34775;SDS011;20989;52.566;13.346;2023-04-25T06:25:30;1.95;;;1.38;;
34775;SDS011;20989;52.566;13.346;2023-04-25T06:28:30;4.43;;;1.10;;
34775;SDS011;20989;52.566;13.346;2023-04-25T06:31:31;1.63;;;0.95;;
34775;SDS011;20989;52.566;13.346;2023-04-25T06:34:33;1.40;;;1.10;;
34775;SDS011;20989;52.566;13.346;2023-04-25T06:37:33;1.92;;;1.30;;
34775;SDS011;20989;52.566;13.346;2023-04-25T06:40:34;1.10;;;1.00;;
34775;SDS011;20989;52.566;13.346;2023-04-25T06:43:35;1.90;;;1.13;;
34775;SDS011;20989;52.566;13.346;2023-04-25T06:46:35;1.42;;;1.23;;
34775;SDS011;20989;52.566;13.346;2023-04-25T06:49:37;1.52;;;0.95;;
34775;SDS011;20989;52.566;13.346;2023-04-25T06:52:38;1.00;;;0.93;;
34775;SDS011;20989;52.566;13.346;2023-04-25T06:55:39;1.30;;;1.10;;
34775;SDS011;20989;52.566;13.346;2023-04-25T06:58:40;1.88;;;1.30;;
34775;SDS011;20989;52.566;13.346;2023-04-25T07:01:41;2.83;;;1.50;;
34775;SDS011;20989;52.566;13.346;2023-04-25T07:04:41;1.05;;;0.90;;
34775;SDS011;20989;52.566;13.346;2023-04-25T07:07:43;3.05;;;1.00;;
34775;SDS011;20989;52.566;13.346;2023-04-25T07:10:44;1.38;;;1.10;;
34775;SDS011;20989;52.566;13.346;2023-04-25T07:13:46;1.05;;;0.98;;
34775;SDS011;20989;52.566;13.346;2023-04-25T07:16:47;1.20;;;1.10;;
34775;SDS011;20989;52.566;13.346;2023-04-25T07:19:48;0.85;;;0.85;;
34775;SDS011;20989;52.566;13.346;2023-04-25T07:22:49;1.10;;;1.05;;
34775;SDS011;20989;52.566;13.346;2023-04-25T07:25:50;1.20;;;1.10;;
34775;SDS011;20989;52.566;13.346;2023-04-25T07:28:51;1.30;;;0.82;;
34775;SDS011;20989;52.566;13.346;2023-04-25T07:31:51;1.38;;;1.25;;
34775;SDS011;20989;52.566;13.346;2023-04-25T07:34:53;1.20;;;1.10;;
34775;SDS011;20989;52.566;13.346;2023-04-25T07:37:53;1.10;;;1.00;;
34775;SDS011;20989;52.566;13.346;2023-04-25T07:40:54;2.17;;;1.08;;
34775;SDS011;20989;52.566;13.346;2023-04-25T07:43:55;0.95;;;0.95;;
34775;SDS011;20989;52.566;13.346;2023-04-25T07:46:55;1.23;;;1.10;;
34775;SDS011;20989;52.566;13.346;2023-04-25T07:49:56;3.35;;;1.23;;
34775;SDS011;20989;52.566;13.346;2023-04-25T07:52:58;2.20;;;1.42;;
34775;SDS011;20989;52.566;13.346;2023-04-25T07:55:58;1.77;;;1.55;;
34775;SDS011;20989;52.566;13.346;2023-04-25T07:58:59;1.73;;;1.20;;
34775;SDS011;20989;52.566;13.346;2023-04-25T08:02:00;1.52;;;1.25;;
34775;SDS011;20989;52.566;13.346;2023-04-25T08:05:02;1.08;;;1.08;;
34775;SDS011;20989;52.566;13.346;2023-04-25T08:08:03;2.35;;;1.52;;
34775;SDS011;20989;52.566;13.346;2023-04-25T08:11:06;2.80;;;1.20;;
34775;SDS011;20989;52.566;13.346;2023-04-25T08:14:07;0.80;;;0.80;;
34775;SDS011;20989;52.566;13.346;2023-04-25T08:17:08;3.10;;;1.58;;
34775;SDS011;20989;52.566;13.346;2023-04-25T08:20:09;2.38;;;1.17;;
34775;SDS011;20989;52.566;13.346;2023-04-25T08:23:10;2.00;;;1.27;;
34775;SDS011;20989;52.566;13.346;2023-04-25T08:26:11;2.55;;;1.33;;
34775;SDS011;20989;52.566;13.346;2023-04-25T08:29:12;1.92;;;1.50;;
34775;SDS011;20989;52.566;13.346;2023-04-25T08:32:13;1.58;;;1.40;;
34775;SDS011;20989;52.566;13.346;2023-04-25T08:35:14;1.30;;;1.20;;
34775;SDS011;20989;52.566;13.346;2023-04-25T08:38:17;2.15;;;1.35;;
34775;SDS011;20989;52.566;13.346;2023-04-25T08:41:18;1.42;;;1.20;;
34775;SDS011;20989;52.566;13.346;2023-04-25T08:44:22;9.43;;;1.40;;
34775;SDS011;20989;52.566;13.346;2023-04-25T08:47:23;2.42;;;1.30;;
34775;SDS011;20989;52.566;13.346;2023-04-25T08:50:27;1.40;;;1.25;;
34775;SDS011;20989;52.566;13.346;2023-04-25T08:53:29;4.60;;;1.70;;
34775;SDS011;20989;52.566;13.346;2023-04-25T08:56:31;4.70;;;1.50;;
34775;SDS011;20989;52.566;13.346;2023-04-25T08:59:34;2.90;;;1.70;;
34775;SDS011;20989;52.566;13.346;2023-04-25T09:02:37;5.50;;;2.08;;
34775;SDS011;20989;52.566;13.346;2023-04-25T09:05:39;3.78;;;1.60;;
34775;SDS011;20989;52.566;13.346;2023-04-25T09:08:40;5.38;;;1.60;;
34775;SDS011;20989;52.566;13.346;2023-04-25T09:11:41;2.75;;;1.55;;
34775;SDS011;20989;52.566;13.346;2023-04-25T09:14:42;2.85;;;1.42;;
34775;SDS011;20989;52.566;13.346;2023-04-25T09:17:43;1.88;;;1.58;;
34775;SDS011;20989;52.566;13.346;2023-04-25T09:20:45;1.38;;;1.27;;
34775;SDS011;20989;52.566;13.346;2023-04-25T09:23:46;4.32;;;1.65;;
34775;SDS011;20989;52.566;13.346;2023-04-25T09:26:48;2.42;;;1.48;;
34775;SDS011;20989;52.566;13.346;2023-04-25T09:29:49;2.28;;;1.50;;
34775;SDS011;20989;52.566;13.346;2023-04-25T09:32:57;5.10;;;1.55;;
34775;SDS011;20989;52.566;13.346;2023-04-25T09:36:07;4.75;;;1.73;;
34775;SDS011;20989;52.566;13.346;2023-04-25T09:39:12;2.40;;;1.35;;
34775;SDS011;20989;52.566;13.346;2023-04-25T09:42:16;3.25;;;1.60;;
34775;SDS011;20989;52.566;13.346;2023-04-25T09:45:17;6.03;;;1.80;;
34775;SDS011;20989;52.566;13.346;2023-04-25T09:48:18;2.20;;;1.50;;
34775;SDS011;20989;52.566;13.346;2023-04-25T09:51:20;3.95;;;1.58;;
34775;SDS011;20989;52.566;13.346;2023-04-25T09:54:26;7.53;;;1.70;;
34775;SDS011;20989;52.566;13.346;2023-04-25T09:57:27;3.70;;;2.00;;
34775;SDS011;20989;52.566;13.346;2023-04-25T10:00:27;3.50;;;1.63;;
34775;SDS011;20989;52.566;13.346;2023-04-25T10:03:32;2.72;;;1.45;;
34775;SDS011;20989;52.566;13.346;2023-04-25T10:06:34;11.82;;;2.08;;
34775;SDS011;20989;52.566;13.346;2023-04-25T10:09:38;2.80;;;1.50;;
34775;SDS011;20989;52.566;13.346;2023-04-25T10:12:39;4.57;;;1.90;;
34775;SDS011;20989;52.566;13.346;2023-04-25T10:15:42;5.78;;;1.40;;
34775;SDS011;20989;52.566;13.346;2023-04-25T10:18:44;5.53;;;1.30;;
34775;SDS011;20989;52.566;13.346;2023-04-25T10:21:51;4.65;;;1.70;;
34775;SDS011;20989;52.566;13.346;2023-04-25T10:28:04;3.08;;;1.58;;
34775;SDS011;20989;52.566;13.346;2023-04-25T10:31:07;3.15;;;1.65;;
34775;SDS011;20989;52.566;13.346;2023-04-25T10:34:08;2.30;;;1.65;;
34775;SDS011;20989;52.566;13.346;2023-04-25T10:37:10;5.85;;;1.30;;
34775;SDS011;20989;52.566;13.346;2023-04-25T10:40:11;4.32;;;2.03;;
34775;SDS011;20989;52.566;13.346;2023-04-25T10:46:31;1.98;;;1.48;;
34775;SDS011;20989;52.566;13.346;2023-04-25T10:52:38;2.78;;;1.42;;
34775;SDS011;20989;52.566;13.346;2023-04-25T10:55:49;2.53;;;1.70;;
34775;SDS011;20989;52.566;13.346;2023-04-25T10:58:51;3.17;;;1.70;;
34775;SDS011;20989;52.566;13.346;2023-04-25T11:02:09;1.98;;;1.42;;
34775;SDS011;20989;52.566;13.346;2023-04-25T11:05:20;2.88;;;1.60;;
34775;SDS011;20989;52.566;13.346;2023-04-25T11:08:32;2.97;;;1.70;;
34775;SDS011;20989;52.566;13.346;2023-04-25T11:11:53;2.40;;;1.77;;
34775;SDS011;20989;52.566;13.346;2023-04-25T11:18:01;3.65;;;1.60;;
34775;SDS011;20989;52.566;13.346;2023-04-25T11:21:02;3.55;;;1.90;;
34775;SDS011;20989;52.566;13.346;2023-04-25T11:24:03;3.33;;;1.73;;
34775;SDS011;20989;52.566;13.346;2023-04-25T11:27:04;1.92;;;1.63;;
34775;SDS011;20989;52.566;13.346;2023-04-25T11:30:12;2.53;;;2.03;;
34775;SDS011;20989;52.566;13.346;2023-04-25T11:33:13;2.88;;;1.90;;
34775;SDS011;20989;52.566;13.346;2023-04-25T11:36:14;3.85;;;1.80;;
34775;SDS011;20989;52.566;13.346;2023-04-25T11:39:15;1.90;;;1.70;;
34775;SDS011;20989;52.566;13.346;2023-04-25T11:42:16;2.97;;;2.03;;
34775;SDS011;20989;52.566;13.346;2023-04-25T11:45:16;4.40;;;2.25;;
34775;SDS011;20989;52.566;13.346;2023-04-25T11:48:18;1.42;;;1.33;;
34775;SDS011;20989;52.566;13.346;2023-04-25T11:51:20;3.97;;;1.85;;
34775;SDS011;20989;52.566;13.346;2023-04-25T11:54:21;2.80;;;1.85;;
34775;SDS011;20989;52.566;13.346;2023-04-25T11:57:23;2.72;;;1.70;;
34775;SDS011;20989;52.566;13.346;2023-04-25T12:00:24;1.83;;;1.58;;
34775;SDS011;20989;52.566;13.346;2023-04-25T12:03:25;5.35;;;1.70;;
34775;SDS011;20989;52.566;13.346;2023-04-25T12:06:31;4.90;;;1.90;;
34775;SDS011;20989;52.566;13.346;2023-04-25T12:09:32;9.52;;;2.35;;
34775;SDS011;20989;52.566;13.346;2023-04-25T12:12:34;4.53;;;2.00;;
34775;SDS011;20989;52.566;13.346;2023-04-25T12:15:35;8.05;;;2.00;;
34775;SDS011;20989;52.566;13.346;2023-04-25T12:18:40;16.98;;;3.97;;
34775;SDS011;20989;52.566;13.346;2023-04-25T12:21:41;13.18;;;5.75;;
34775;SDS011;20989;52.566;13.346;2023-04-25T12:24:44;11.35;;;5.55;;
34775;SDS011;20989;52.566;13.346;2023-04-25T12:27:45;5.85;;;4.43;;
34775;SDS011;20989;52.566;13.346;2023-04-25T12:30:59;8.00;;;5.07;;
34775;SDS011;20989;52.566;13.346;2023-04-25T12:34:06;7.53;;;4.95;;
34775;SDS011;20989;52.566;13.346;2023-04-25T12:37:08;8.30;;;3.92;;
34775;SDS011;20989;52.566;13.346;2023-04-25T12:40:08;7.10;;;5.13;;
34775;SDS011;20989;52.566;13.346;2023-04-25T12:43:11;5.13;;;3.92;;
34775;SDS011;20989;52.566;13.346;2023-04-25T12:46:11;10.20;;;3.95;;
34775;SDS011;20989;52.566;13.346;2023-04-25T12:49:12;4.32;;;3.92;;
34775;SDS011;20989;52.566;13.346;2023-04-25T12:52:13;5.53;;;3.38;;
34775;SDS011;20989;52.566;13.346;2023-04-25T12:55:14;4.97;;;3.53;;
34775;SDS011;20989;52.566;13.346;2023-04-25T12:58:15;4.78;;;3.38;;
34775;SDS011;20989;52.566;13.346;2023-04-25T13:01:17;5.63;;;2.97;;
34775;SDS011;20989;52.566;13.346;2023-04-25T13:04:19;4.18;;;3.30;;
34775;SDS011;20989;52.566;13.346;2023-04-25T13:07:21;4.80;;;2.60;;
34775;SDS011;20989;52.566;13.346;2023-04-25T13:10:22;4.28;;;2.60;;
34775;SDS011;20989;52.566;13.346;2023-04-25T13:13:23;3.67;;;2.58;;
34775;SDS011;20989;52.566;13.346;2023-04-25T13:16:23;4.53;;;2.70;;
34775;SDS011;20989;52.566;13.346;2023-04-25T13:19:24;4.88;;;2.83;;
34775;SDS011;20989;52.566;13.346;2023-04-25T13:22:26;4.05;;;2.60;;
34775;SDS011;20989;52.566;13.346;2023-04-25T13:25:26;4.13;;;2.30;;
34775;SDS011;20989;52.566;13.346;2023-04-25T13:28:27;2.20;;;2.10;;
34775;SDS011;20989;52.566;13.346;2023-04-25T13:31:28;2.78;;;2.22;;
34775;SDS011;20989;52.566;13.346;2023-04-25T13:34:30;3.35;;;2.20;;
34775;SDS011;20989;52.566;13.346;2023-04-25T13:37:31;3.60;;;2.30;;
34775;SDS011;20989;52.566;13.346;2023-04-25T13:40:32;8.30;;;2.63;;
34775;SDS011;20989;52.566;13.346;2023-04-25T13:43:33;5.60;;;2.45;;
34775;SDS011;20989;52.566;13.346;2023-04-25T13:46:34;2.70;;;2.28;;
34775;SDS011;20989;52.566;13.346;2023-04-25T13:49:35;2.15;;;1.75;;
34775;SDS011;20989;52.566;13.346;2023-04-25T13:52:35;2.88;;;2.33;;
34775;SDS011;20989;52.566;13.346;2023-04-25T13:55:36;5.50;;;2.20;;
34775;SDS011;20989;52.566;13.346;2023-04-25T13:58:37;2.50;;;1.85;;
34775;SDS011;20989;52.566;13.346;2023-04-25T14:01:38;2.78;;;1.75;;
34775;SDS011;20989;52.566;13.346;2023-04-25T14:04:40;2.97;;;1.67;;
34775;SDS011;20989;52.566;13.346;2023-04-25T14:07:41;3.95;;;1.90;;
34775;SDS011;20989;52.566;13.346;2023-04-25T14:10:41;1.63;;;1.50;;
34775;SDS011;20989;52.566;13.346;2023-04-25T14:13:42;1.77;;;1.60;;
34775;SDS011;20989;52.566;13.346;2023-04-25T14:16:43;2.42;;;1.92;;
34775;SDS011;20989;52.566;13.346;2023-04-25T14:19:44;2.28;;;1.73;;
34775;SDS011;20989;52.566;13.346;2023-04-25T14:22:45;3.47;;;1.95;;
34775;SDS011;20989;52.566;13.346;2023-04-25T14:25:46;1.77;;;1.67;;
34775;SDS011;20989;52.566;13.346;2023-04-25T14:28:47;3.33;;;2.10;;
34775;SDS011;20989;52.566;13.346;2023-04-25T14:31:48;2.47;;;1.70;;
34775;SDS011;20989;52.566;13.346;2023-04-25T14:34:49;2.42;;;1.60;;
34775;SDS011;20989;52.566;13.346;2023-04-25T14:37:50;2.83;;;1.80;;
34775;SDS011;20989;52.566;13.346;2023-04-25T14:40:51;1.60;;;1.42;;
34775;SDS011;20989;52.566;13.346;2023-04-25T14:43:53;2.80;;;1.48;;
34775;SDS011;20989;52.566;13.346;2023-04-25T14:46:55;3.05;;;1.92;;
34775;SDS011;20989;52.566;13.346;2023-04-25T14:49:56;5.20;;;1.67;;
34775;SDS011;20989;52.566;13.346;2023-04-25T14:52:57;3.70;;;1.90;;
34775;SDS011;20989;52.566;13.346;2023-04-25T14:56:00;4.28;;;1.52;;
34775;SDS011;20989;52.566;13.346;2023-04-25T14:59:01;6.53;;;1.70;;
34775;SDS011;20989;52.566;13.346;2023-04-25T15:02:02;1.65;;;1.48;;
34775;SDS011;20989;52.566;13.346;2023-04-25T15:05:02;4.88;;;1.95;;
34775;SDS011;20989;52.566;13.346;2023-04-25T15:08:03;2.22;;;1.70;;
34775;SDS011;20989;52.566;13.346;2023-04-25T15:11:04;3.17;;;1.42;;
34775;SDS011;20989;52.566;13.346;2023-04-25T15:14:05;2.67;;;1.48;;
34775;SDS011;20989;52.566;13.346;2023-04-25T15:17:06;2.08;;;1.40;;
34775;SDS011;20989;52.566;13.346;2023-04-25T15:20:08;3.60;;;1.52;;
34775;SDS011;20989;52.566;13.346;2023-04-25T15:23:10;1.45;;;1.35;;
34775;SDS011;20989;52.566;13.346;2023-04-25T15:26:11;3.15;;;1.05;;
34775;SDS011;20989;52.566;13.346;2023-04-25T15:29:12;3.50;;;1.25;;
34775;SDS011;20989;52.566;13.346;2023-04-25T15:32:15;3.70;;;1.48;;
34775;SDS011;20989;52.566;13.346;2023-04-25T15:35:42;3.25;;;1.50;;
34775;SDS011;20989;52.566;13.346;2023-04-25T15:38:42;3.35;;;1.95;;
34775;SDS011;20989;52.566;13.346;2023-04-25T15:41:43;3.00;;;1.58;;
34775;SDS011;20989;52.566;13.346;2023-04-25T15:44:44;5.05;;;1.42;;
34775;SDS011;20989;52.566;13.346;2023-04-25T15:47:45;1.65;;;1.40;;
34775;SDS011;20989;52.566;13.346;2023-04-25T15:50:46;1.52;;;1.27;;
34775;SDS011;20989;52.566;13.346;2023-04-25T15:53:47;4.30;;;1.90;;
34775;SDS011;20989;52.566;13.346;2023-04-25T15:56:47;2.75;;;1.30;;
34775;SDS011;20989;52.566;13.346;2023-04-25T15:59:48;3.42;;;1.20;;
34775;SDS011;20989;52.566;13.346;2023-04-25T16:02:49;2.78;;;1.52;;
34775;SDS011;20989;52.566;13.346;2023-04-25T16:05:50;1.67;;;1.08;;
34775;SDS011;20989;52.566;13.346;2023-04-25T16:08:52;1.35;;;1.25;;
34775;SDS011;20989;52.566;13.346;2023-04-25T16:11:53;2.13;;;1.40;;
34775;SDS011;20989;52.566;13.346;2023-04-25T16:14:54;2.72;;;1.00;;
34775;SDS011;20989;52.566;13.346;2023-04-25T16:17:55;1.20;;;1.10;;
34775;SDS011;20989;52.566;13.346;2023-04-25T16:20:56;1.58;;;1.27;;
34775;SDS011;20989;52.566;13.346;2023-04-25T16:23:56;3.40;;;1.33;;
34775;SDS011;20989;52.566;13.346;2023-04-25T16:26:57;1.98;;;1.05;;
34775;SDS011;20989;52.566;13.346;2023-04-25T16:29:58;1.30;;;1.20;;
34775;SDS011;20989;52.566;13.346;2023-04-25T16:32:58;2.30;;;1.30;;
34775;SDS011;20989;52.566;13.346;2023-04-25T16:35:59;2.10;;;1.20;;
34775;SDS011;20989;52.566;13.346;2023-04-25T16:39:00;2.13;;;1.10;;
34775;SDS011;20989;52.566;13.346;2023-04-25T16:42:01;1.75;;;1.23;;
34775;SDS011;20989;52.566;13.346;2023-04-25T16:45:02;28.08;;;2.33;;
34775;SDS011;20989;52.566;13.346;2023-04-25T16:48:04;8.45;;;1.73;;
34775;SDS011;20989;52.566;13.346;2023-04-25T16:51:05;15.88;;;2.00;;
34775;SDS011;20989;52.566;13.346;2023-04-25T16:54:05;8.95;;;1.58;;
34775;SDS011;20989;52.566;13.346;2023-04-25T16:57:06;12.13;;;1.40;;
34775;SDS011;20989;52.566;13.346;2023-04-25T17:00:10;13.68;;;1.95;;
34775;SDS011;20989;52.566;13.346;2023-04-25T17:03:12;3.45;;;1.58;;
34775;SDS011;20989;52.566;13.346;2023-04-25T17:06:12;19.83;;;1.90;;
34775;SDS011;20989;52.566;13.346;2023-04-25T17:09:13;10.60;;;1.30;;
34775;SDS011;20989;52.566;13.346;2023-04-25T17:12:15;13.52;;;1.67;;
34775;SDS011;20989;52.566;13.346;2023-04-25T17:15:16;17.75;;;1.70;;
34775;SDS011;20989;52.566;13.346;2023-04-25T17:18:17;12.55;;;2.30;;
34775;SDS011;20989;52.566;13.346;2023-04-25T17:21:18;19.63;;;2.17;;
34775;SDS011;20989;52.566;13.346;2023-04-25T17:24:19;7.65;;;1.63;;
34775;SDS011;20989;52.566;13.346;2023-04-25T17:27:20;14.35;;;1.58;;
34775;SDS011;20989;52.566;13.346;2023-04-25T17:30:21;10.05;;;2.03;;
34775;SDS011;20989;52.566;13.346;2023-04-25T17:33:22;8.45;;;1.60;;
34775;SDS011;20989;52.566;13.346;2023-04-25T17:36:26;6.95;;;1.65;;
34775;SDS011;20989;52.566;13.346;2023-04-25T17:39:27;2.13;;;1.05;;
34775;SDS011;20989;52.566;13.346;2023-04-25T17:42:28;5.05;;;1.30;;
34775;SDS011;20989;52.566;13.346;2023-04-25T17:45:29;5.13;;;1.48;;
34775;SDS011;20989;52.566;13.346;2023-04-25T17:48:33;4.18;;;1.23;;
34775;SDS011;20989;52.566;13.346;2023-04-25T17:51:34;2.88;;;1.08;;
34775;SDS011;20989;52.566;13.346;2023-04-25T17:54:35;1.90;;;1.25;;
34775;SDS011;20989;52.566;13.346;2023-04-25T17:57:35;5.50;;;1.13;;
34775;SDS011;20989;52.566;13.346;2023-04-25T18:00:37;7.30;;;1.60;;
34775;SDS011;20989;52.566;13.346;2023-04-25T18:03:38;2.53;;;1.05;;
34775;SDS011;20989;52.566;13.346;2023-04-25T18:06:39;2.10;;;0.90;;
34775;SDS011;20989;52.566;13.346;2023-04-25T18:09:40;5.65;;;1.00;;
34775;SDS011;20989;52.566;13.346;2023-04-25T18:12:41;3.72;;;1.05;;